Time;durP1;ratioP1;P1;durP2;ratioP2;P2;SDS_P1;SDS_P2;PMS_P1;PMS_P2;Temp;Humidity;BMP_temperature;BMP_pressure;BME280_temperature;BME280_humidity;BME280_pressure;Samples;Min_cycle;Max_cycle;Signal;HPM_P1;HPM_P2
2021/04/27 00:00:12;;;;;;;7.25;4.15;;;5.00;69.50;;;;;;5050904;28;20096;-62
2021/04/27 00:02:38;;;;;;;14.65;4.53;;;5.00;69.40;;;;;;5047015;28;20431;-63
2021/04/27 00:05:04;;;;;;;9.02;4.75;;;5.00;69.40;;;;;;5047275;28;20029;-63
2021/04/27 00:07:30;;;;;;;7.53;4.22;;;5.00;69.60;;;;;;5050357;28;20029;-62
2021/04/27 00:09:56;;;;;;;10.65;4.47;;;5.00;69.70;;;;;;5050141;28;20412;-62
2021/04/27 00:12:21;;;;;;;8.23;4.28;;;4.90;69.90;;;;;;5048763;28;20438;-65
2021/04/27 00:14:47;;;;;;;8.65;4.90;;;4.90;70.00;;;;;;5050021;28;20028;-62
2021/04/27 00:17:12;;;;;;;10.13;4.20;;;4.90;70.20;;;;;;5048374;28;20029;-62
2021/04/27 00:19:38;;;;;;;7.90;4.35;;;4.80;70.20;;;;;;5049220;28;20029;-63
2021/04/27 00:22:04;;;;;;;8.10;4.53;;;4.80;70.60;;;;;;5049727;28;20033;-63
2021/04/27 00:24:31;;;;;;;8.55;4.22;;;4.80;70.30;;;;;;5050203;28;20395;-62
2021/04/27 00:26:58;;;;;;;10.65;4.28;;;4.80;70.40;;;;;;5049420;28;20044;-63
2021/04/27 00:29:24;;;;;;;10.15;4.43;;;4.70;70.80;;;;;;5050119;28;20083;-63
2021/04/27 00:31:49;;;;;;;8.20;4.22;;;4.70;71.00;;;;;;5048857;28;20021;-62
2021/04/27 00:34:15;;;;;;;9.90;3.83;;;4.60;71.20;;;;;;5050413;28;20096;-62
2021/04/27 00:36:40;;;;;;;8.48;4.15;;;4.50;71.70;;;;;;5049306;28;20056;-63
2021/04/27 00:39:06;;;;;;;7.40;4.03;;;4.50;71.90;;;;;;5050683;28;20021;-63
2021/04/27 00:41:32;;;;;;;8.38;4.18;;;4.40;72.20;;;;;;5050038;28;20036;-63
2021/04/27 00:43:57;;;;;;;7.63;4.18;;;4.30;72.50;;;;;;5047875;28;20021;-62
2021/04/27 00:46:23;;;;;;;10.00;4.20;;;4.20;72.90;;;;;;5049721;28;20154;-62
2021/04/27 00:48:48;;;;;;;8.82;4.38;;;4.20;73.00;;;;;;5047370;28;20013;-63
2021/04/27 00:51:14;;;;;;;8.48;4.03;;;4.10;73.70;;;;;;5049780;28;20100;-62
2021/04/27 00:53:39;;;;;;;8.77;4.15;;;4.00;73.90;;;;;;5048116;28;20025;-62
2021/04/27 00:56:05;;;;;;;10.77;4.28;;;4.00;74.00;;;;;;5049920;28;20029;-63
2021/04/27 00:58:31;;;;;;;7.18;4.22;;;4.00;73.30;;;;;;5031385;28;20110;-62
2021/04/27 01:00:57;;;;;;;7.53;4.50;;;4.00;73.40;;;;;;5031244;28;20485;-62
2021/04/27 01:03:22;;;;;;;8.10;3.80;;;4.00;73.40;;;;;;5049680;28;20025;-62
2021/04/27 01:05:48;;;;;;;7.85;3.92;;;4.00;73.00;;;;;;5048662;28;20037;-63
2021/04/27 01:08:34;;;;;;;8.55;4.30;;;4.00;73.40;;;;;;5050042;28;20017;-63
2021/04/27 01:11:34;;;;;;;7.05;4.03;;;4.00;73.20;;;;;;5032224;28;20368;-63
2021/04/27 01:14:21;;;;;;;10.20;4.18;;;4.10;72.80;;;;;;5049777;28;20021;-61
2021/04/27 01:16:49;;;;;;;7.95;4.13;;;4.10;72.60;;;;;;5046550;28;20448;-62
2021/04/27 01:19:17;;;;;;;8.05;4.00;;;4.10;72.40;;;;;;5047949;28;20510;-61
2021/04/27 01:21:42;;;;;;;7.72;4.00;;;4.20;72.40;;;;;;5047537;28;20036;-61
2021/04/27 01:24:11;;;;;;;8.02;3.88;;;4.20;72.20;;;;;;5048409;28;20021;-60
2021/04/27 01:26:48;;;;;;;6.93;3.90;;;4.20;72.00;;;;;;5047990;28;20383;-61
2021/04/27 01:29:16;;;;;;;7.82;3.50;;;4.10;72.10;;;;;;5049203;28;20025;-61
2021/04/27 01:31:41;;;;;;;6.32;3.50;;;4.10;72.20;;;;;;5047156;28;20029;-60
2021/04/27 01:34:07;;;;;;;12.43;4.00;;;4.10;72.20;;;;;;5049095;28;20372;-61
2021/04/27 01:36:33;;;;;;;8.98;4.00;;;4.10;72.30;;;;;;5047893;28;20037;-60
2021/04/27 01:38:59;;;;;;;10.25;3.80;;;4.00;72.40;;;;;;5048737;28;20029;-61
2021/04/27 01:41:25;;;;;;;8.13;3.90;;;4.00;72.20;;;;;;5048642;28;20033;-61
2021/04/27 01:43:50;;;;;;;8.43;4.07;;;4.00;72.50;;;;;;5047378;28;20116;-61
2021/04/27 01:46:16;;;;;;;8.98;4.38;;;4.00;72.80;;;;;;5049151;28;20108;-60
2021/04/27 01:48:42;;;;;;;6.43;4.07;;;4.00;72.80;;;;;;5028028;28;20459;-61
2021/04/27 01:51:10;;;;;;;8.60;3.92;;;3.90;73.20;;;;;;5048049;28;20025;-60
2021/04/27 01:53:38;;;;;;;6.55;3.40;;;3.90;73.30;;;;;;5048270;28;20090;-61
2021/04/27 01:56:04;;;;;;;9.10;3.75;;;3.80;73.50;;;;;;5048859;28;20108;-61
2021/04/27 01:58:30;;;;;;;5.43;3.80;;;3.70;74.20;;;;;;5048764;28;20056;-60
2021/04/27 02:00:56;;;;;;;8.55;3.80;;;3.70;74.00;;;;;;5048574;28;20460;-61
2021/04/27 02:03:21;;;;;;;8.65;4.22;;;3.60;74.40;;;;;;5048214;28;20037;-61
2021/04/27 02:05:47;;;;;;;9.63;3.60;;;3.60;74.60;;;;;;5048122;28;20037;-61
2021/04/27 02:08:13;;;;;;;7.07;3.83;;;3.50;74.80;;;;;;5049061;28;20083;-61
2021/04/27 02:10:38;;;;;;;7.40;3.97;;;3.50;74.80;;;;;;5047839;28;20082;-61
2021/04/27 02:13:12;;;;;;;6.90;4.20;;;3.50;74.90;;;;;;5048781;28;20048;-61
2021/04/27 02:15:37;;;;;;;8.02;3.92;;;3.50;75.10;;;;;;5046837;28;20024;-61
2021/04/27 02:18:13;;;;;;;11.00;4.18;;;3.40;75.40;;;;;;5046446;28;20033;-61
2021/04/27 02:20:39;;;;;;;6.85;3.95;;;3.40;75.50;;;;;;5046786;28;20031;-61
2021/04/27 02:23:04;;;;;;;6.38;3.65;;;3.40;75.90;;;;;;5047846;28;20060;-61
2021/04/27 02:25:30;;;;;;;6.43;3.92;;;3.30;76.00;;;;;;5046835;28;20501;-62
2021/04/27 02:27:56;;;;;;;6.45;3.63;;;3.30;76.00;;;;;;5033746;28;20464;-62
2021/04/27 02:30:22;;;;;;;6.35;3.95;;;3.20;76.40;;;;;;5052559;28;20517;-61
2021/04/27 02:32:47;;;;;;;7.65;4.38;;;3.20;76.30;;;;;;5050415;28;20021;-61
2021/04/27 02:35:14;;;;;;;7.90;3.70;;;3.10;76.80;;;;;;5052676;28;20074;-61
2021/04/27 02:37:41;;;;;;;9.80;4.20;;;3.20;76.80;;;;;;5051785;28;20029;-61
2021/04/27 02:40:07;;;;;;;8.38;4.03;;;3.10;76.90;;;;;;5052163;28;20053;-61
2021/04/27 02:42:35;;;;;;;6.95;4.43;;;3.00;77.20;;;;;;5051080;28;20112;-62
2021/04/27 02:45:00;;;;;;;11.55;4.57;;;3.00;77.20;;;;;;5051228;28;20021;-61
2021/04/27 02:47:26;;;;;;;10.75;4.28;;;3.00;77.70;;;;;;5049445;28;20025;-61
2021/04/27 02:49:52;;;;;;;7.22;4.25;;;3.00;77.40;;;;;;5052002;28;20014;-62
2021/04/27 02:52:17;;;;;;;6.47;4.05;;;3.00;77.40;;;;;;5050943;28;20016;-61
2021/04/27 02:54:43;;;;;;;8.07;4.22;;;3.00;77.60;;;;;;5051553;28;20029;-61
2021/04/27 02:57:09;;;;;;;7.57;4.03;;;3.00;77.60;;;;;;5051908;28;20028;-62
2021/04/27 02:59:34;;;;;;;10.82;4.57;;;3.00;77.60;;;;;;5051579;28;20101;-61
2021/04/27 03:02:00;;;;;;;9.60;4.80;;;2.90;77.50;;;;;;5050801;28;20028;-62
2021/04/27 03:04:26;;;;;;;8.75;5.50;;;2.90;77.70;;;;;;5051071;28;20021;-61
2021/04/27 03:06:51;;;;;;;8.73;4.13;;;2.90;77.60;;;;;;5051295;28;20049;-61
2021/04/27 03:09:17;;;;;;;8.98;4.18;;;2.80;77.80;;;;;;5052477;28;20017;-61
2021/04/27 03:11:42;;;;;;;8.95;4.03;;;2.70;77.80;;;;;;5050717;28;20028;-61
2021/04/27 03:14:08;;;;;;;8.15;4.05;;;2.80;77.80;;;;;;5051756;28;20021;-63
2021/04/27 03:16:33;;;;;;;11.32;4.65;;;2.70;77.80;;;;;;5051506;28;20021;-62
2021/04/27 03:18:59;;;;;;;8.07;4.07;;;2.80;78.20;;;;;;5048645;28;20036;-62
2021/04/27 03:21:25;;;;;;;10.40;4.43;;;2.70;77.80;;;;;;5051291;28;20431;-62
2021/04/27 03:23:50;;;;;;;6.95;4.10;;;2.70;77.90;;;;;;5051119;28;20025;-62
2021/04/27 03:26:16;;;;;;;9.90;4.50;;;2.80;77.70;;;;;;5051256;28;20032;-62
2021/04/27 03:28:42;;;;;;;10.48;4.28;;;2.80;77.30;;;;;;5051107;28;20028;-61
2021/04/27 03:31:07;;;;;;;8.50;4.25;;;2.90;77.10;;;;;;5050564;28;20033;-61
2021/04/27 03:33:33;;;;;;;9.32;4.55;;;2.90;77.50;;;;;;5050928;28;20029;-61
2021/04/27 03:35:59;;;;;;;9.90;4.25;;;2.90;76.90;;;;;;5050603;28;20102;-62
2021/04/27 03:38:24;;;;;;;8.02;4.25;;;2.90;77.10;;;;;;5050002;28;20099;-61
2021/04/27 03:40:50;;;;;;;9.57;4.75;;;2.90;76.60;;;;;;5049274;28;20033;-61
2021/04/27 03:43:15;;;;;;;8.80;4.07;;;2.90;76.60;;;;;;5051950;28;20353;-61
2021/04/27 03:45:41;;;;;;;6.78;4.53;;;2.90;76.80;;;;;;5050140;28;20040;-61
2021/04/27 03:48:09;;;;;;;9.20;4.32;;;2.80;77.00;;;;;;5048775;28;20025;-61
2021/04/27 03:50:35;;;;;;;8.38;4.53;;;2.80;77.00;;;;;;5049139;28;20182;-62
2021/04/27 03:53:00;;;;;;;9.13;4.30;;;2.70;77.20;;;;;;5050334;28;20460;-61
2021/04/27 03:55:26;;;;;;;7.18;4.15;;;2.70;77.10;;;;;;5050439;28;20029;-61
2021/04/27 03:57:52;;;;;;;9.02;4.97;;;2.60;77.50;;;;;;5049181;28;20104;-61
2021/04/27 04:00:18;;;;;;;6.90;4.50;;;2.60;78.10;;;;;;5050976;28;20013;-61
2021/04/27 04:02:43;;;;;;;9.65;4.35;;;2.50;78.30;;;;;;5049932;28;20094;-61
2021/04/27 04:05:10;;;;;;;9.50;5.05;;;2.50;78.60;;;;;;5050852;28;20056;-61
2021/04/27 04:07:35;;;;;;;7.68;4.60;;;2.50;78.70;;;;;;5049932;28;20041;-61
2021/04/27 04:10:01;;;;;;;13.18;4.47;;;2.50;78.40;;;;;;5049469;28;20032;-61
2021/04/27 04:12:26;;;;;;;8.07;4.88;;;2.50;78.30;;;;;;5050609;28;20372;-61
2021/04/27 04:14:53;;;;;;;11.07;5.07;;;2.50;78.20;;;;;;5050239;28;20032;-61
2021/04/27 04:17:18;;;;;;;10.57;4.25;;;2.50;78.60;;;;;;5047940;28;20427;-61
2021/04/27 04:19:44;;;;;;;10.18;4.47;;;2.50;78.10;;;;;;5049817;28;20021;-62
2021/04/27 04:22:10;;;;;;;7.78;4.50;;;2.50;78.10;;;;;;5049456;28;20036;-61
2021/04/27 04:24:35;;;;;;;7.88;4.20;;;2.50;77.80;;;;;;5047611;28;20094;-61
2021/04/27 04:27:01;;;;;;;10.63;5.00;;;2.50;77.80;;;;;;5050617;28;20476;-61
2021/04/27 04:29:27;;;;;;;9.48;4.93;;;2.60;77.40;;;;;;5048976;28;20039;-61
2021/04/27 04:31:52;;;;;;;10.05;4.25;;;2.70;77.10;;;;;;5049429;28;20064;-61
2021/04/27 04:34:18;;;;;;;9.65;4.88;;;2.70;76.80;;;;;;5050177;28;20021;-61
2021/04/27 04:36:44;;;;;;;10.20;4.93;;;2.80;76.50;;;;;;5048741;28;20029;-61
2021/04/27 04:39:10;;;;;;;13.20;5.20;;;2.80;76.40;;;;;;5048698;28;20436;-61
2021/04/27 04:41:36;;;;;;;9.98;4.75;;;2.90;76.30;;;;;;5048204;28;20021;-61
2021/04/27 04:44:02;;;;;;;8.40;4.90;;;3.10;75.90;;;;;;5050050;28;20379;-61
2021/04/27 04:46:27;;;;;;;9.38;4.53;;;3.40;75.10;;;;;;5048247;28;20372;-61
2021/04/27 04:48:53;;;;;;;7.90;4.88;;;3.50;74.40;;;;;;5047170;28;20438;-61
2021/04/27 04:51:18;;;;;;;9.32;4.82;;;3.70;73.90;;;;;;5049584;28;20052;-61
2021/04/27 04:53:44;;;;;;;6.38;4.30;;;4.00;72.50;;;;;;5049111;28;20472;-61
2021/04/27 04:56:10;;;;;;;10.90;4.30;;;4.00;72.40;;;;;;5048483;28;20475;-61
2021/04/27 04:58:35;;;;;;;9.60;4.57;;;4.10;71.70;;;;;;5049239;28;20025;-61
2021/04/27 05:01:01;;;;;;;8.13;4.18;;;4.40;71.20;;;;;;5049325;28;20037;-61
2021/04/27 05:03:28;;;;;;;8.05;4.35;;;4.70;70.30;;;;;;5048168;28;20081;-62
2021/04/27 05:05:53;;;;;;;10.85;4.75;;;5.30;68.60;;;;;;5048834;28;20106;-62
2021/04/27 05:08:32;;;;;;;7.65;4.72;;;5.60;67.50;;;;;;5048837;28;20025;-62
2021/04/27 05:10:58;;;;;;;8.30;4.75;;;5.50;66.90;;;;;;5047979;28;20017;-62
2021/04/27 05:13:23;;;;;;;8.63;4.32;;;5.80;64.90;;;;;;5049779;28;20108;-62
2021/04/27 05:15:49;;;;;;;7.20;4.32;;;6.00;65.40;;;;;;5048453;28;20537;-63
2021/04/27 05:18:15;;;;;;;7.65;4.25;;;6.60;63.90;;;;;;5047435;28;20538;-63
2021/04/27 05:20:41;;;;;;;11.05;4.53;;;6.30;64.70;;;;;;5047161;28;20112;-63
2021/04/27 05:23:06;;;;;;;6.88;4.18;;;6.90;62.50;;;;;;5048154;28;20362;-62
2021/04/27 05:25:32;;;;;;;10.00;4.07;;;7.10;61.40;;;;;;5048149;28;20082;-62
2021/04/27 05:27:58;;;;;;;7.22;3.53;;;7.00;61.70;;;;;;5048416;28;20372;-63
2021/04/27 05:30:23;;;;;;;6.78;4.00;;;6.40;64.10;;;;;;5048239;28;20036;-62
2021/04/27 05:32:50;;;;;;;7.70;4.10;;;7.00;63.10;;;;;;5048045;28;20028;-63
2021/04/27 05:35:15;;;;;;;6.13;4.00;;;7.80;59.10;;;;;;5030988;28;20033;-62
2021/04/27 05:37:41;;;;;;;5.97;4.15;;;8.70;57.20;;;;;;5047291;28;20025;-63
2021/04/27 05:40:07;;;;;;;13.50;4.70;;;8.60;57.00;;;;;;5048872;28;20078;-62
2021/04/27 05:42:34;;;;;;;7.40;3.97;;;8.50;57.30;;;;;;5048554;28;20070;-63
2021/04/27 05:45:01;;;;;;;10.88;4.13;;;8.80;57.70;;;;;;5047659;28;20017;-63
2021/04/27 05:47:27;;;;;;;7.70;3.72;;;9.50;55.80;;;;;;5042422;28;20017;-63
2021/04/27 05:49:53;;;;;;;9.07;3.95;;;8.10;58.90;;;;;;5045505;28;20017;-63
2021/04/27 05:52:19;;;;;;;8.23;4.20;;;7.20;60.50;;;;;;5047591;28;20048;-62
2021/04/27 05:54:44;;;;;;;9.38;4.20;;;7.00;62.40;;;;;;5046435;28;20075;-63
2021/04/27 05:57:10;;;;;;;6.75;4.35;;;6.20;64.50;;;;;;5046797;28;20025;-63
2021/04/27 05:59:35;;;;;;;8.57;4.88;;;6.10;64.80;;;;;;5046232;28;20036;-62
2021/04/27 06:02:01;;;;;;;12.52;4.70;;;5.70;66.70;;;;;;5048935;28;20029;-63
2021/04/27 06:04:27;;;;;;;7.47;4.82;;;5.60;67.00;;;;;;5033511;28;20021;-63
2021/04/27 06:06:52;;;;;;;6.50;4.97;;;5.60;67.30;;;;;;5050914;28;20041;-63
2021/04/27 06:09:18;;;;;;;9.60;4.95;;;5.70;67.50;;;;;;5051622;28;20025;-63
2021/04/27 06:11:44;;;;;;;7.20;4.53;;;5.50;68.00;;;;;;5050761;28;20044;-63
2021/04/27 06:14:10;;;;;;;9.77;4.72;;;5.30;69.10;;;;;;5050291;28;20017;-63
2021/04/27 06:16:35;;;;;;;13.25;5.45;;;5.20;69.40;;;;;;5049078;28;20024;-63
2021/04/27 06:19:01;;;;;;;11.63;5.40;;;5.30;69.50;;;;;;5049310;28;20055;-63
2021/04/27 06:21:27;;;;;;;11.27;4.93;;;5.40;69.40;;;;;;5051059;28;20059;-63
2021/04/27 06:23:53;;;;;;;8.05;5.28;;;5.40;69.00;;;;;;5050660;28;20111;-63
2021/04/27 06:26:19;;;;;;;7.60;5.00;;;5.50;68.70;;;;;;5050843;28;20029;-63
2021/04/27 06:28:44;;;;;;;8.60;5.00;;;5.60;68.80;;;;;;5050661;28;20021;-63
2021/04/27 06:31:10;;;;;;;10.95;4.82;;;6.60;65.80;;;;;;5050877;28;20161;-62
2021/04/27 06:33:36;;;;;;;8.18;5.00;;;7.00;63.90;;;;;;5050023;28;20017;-63
2021/04/27 06:36:01;;;;;;;9.57;4.78;;;8.00;61.60;;;;;;5050922;28;20078;-63
2021/04/27 06:38:27;;;;;;;9.02;5.13;;;8.00;60.90;;;;;;5049969;28;20021;-63
2021/04/27 06:40:53;;;;;;;7.30;5.00;;;8.20;61.00;;;;;;5050531;28;20040;-63
2021/04/27 06:43:19;;;;;;;7.90;4.65;;;7.70;61.20;;;;;;5049663;28;20032;-63
2021/04/27 06:45:44;;;;;;;9.70;5.10;;;7.10;63.60;;;;;;5049947;28;20112;-64
2021/04/27 06:48:10;;;;;;;11.45;5.60;;;7.00;64.50;;;;;;5048679;28;20079;-63
2021/04/27 06:50:36;;;;;;;6.72;5.20;;;6.80;65.40;;;;;;5049911;28;20067;-63
2021/04/27 06:53:02;;;;;;;10.88;5.75;;;6.50;66.20;;;;;;5050441;28;20082;-63
2021/04/27 06:55:28;;;;;;;11.07;5.53;;;6.80;65.80;;;;;;5050380;28;20064;-63
2021/04/27 06:57:53;;;;;;;8.35;4.72;;;6.80;66.40;;;;;;5050107;28;20044;-63
2021/04/27 07:00:20;;;;;;;7.68;5.20;;;7.10;65.20;;;;;;5031929;28;20356;-63
2021/04/27 07:02:45;;;;;;;11.27;5.80;;;7.00;65.40;;;;;;5050078;28;20052;-63
2021/04/27 07:05:11;;;;;;;9.23;5.25;;;6.40;67.30;;;;;;5050762;28;20420;-62
2021/04/27 07:07:37;;;;;;;11.50;5.60;;;6.60;67.20;;;;;;5049976;28;20036;-64
2021/04/27 07:10:03;;;;;;;372.85;185.02;;;6.70;66.80;;;;;;5050791;28;20013;-63
2021/04/27 07:12:28;;;;;;;94.47;41.63;;;7.00;66.70;;;;;;5049634;28;20029;-67
2021/04/27 07:14:54;;;;;;;12.25;8.73;;;7.10;66.20;;;;;;5048354;28;20105;-64
2021/04/27 07:17:20;;;;;;;13.32;7.10;;;7.40;65.50;;;;;;5048944;28;20108;-66
2021/04/27 07:19:45;;;;;;;12.55;6.18;;;7.40;65.60;;;;;;5050604;28;20021;-67
2021/04/27 07:22:11;;;;;;;13.13;6.07;;;7.00;66.40;;;;;;5047850;28;20074;-67
2021/04/27 07:24:37;;;;;;;10.95;5.93;;;7.20;66.40;;;;;;5050192;28;20029;-66
2021/04/27 07:27:03;;;;;;;9.05;5.40;;;7.70;65.10;;;;;;5049806;28;20029;-66
2021/04/27 07:29:28;;;;;;;9.50;6.10;;;8.10;64.10;;;;;;5048685;28;20078;-66
2021/04/27 07:31:54;;;;;;;8.70;5.13;;;8.00;64.10;;;;;;5049761;28;20112;-68
2021/04/27 07:34:20;;;;;;;13.48;5.70;;;7.90;64.70;;;;;;5049042;28;20025;-66
2021/04/27 07:36:45;;;;;;;10.77;5.75;;;8.50;63.60;;;;;;5048003;28;20074;-64
2021/04/27 07:39:13;;;;;;;13.18;6.22;;;8.60;62.30;;;;;;5047878;28;20104;-65
2021/04/27 07:41:39;;;;;;;11.85;6.70;;;8.90;62.20;;;;;;5050196;28;20063;-65
2021/04/27 07:44:05;;;;;;;9.40;5.90;;;8.70;62.20;;;;;;5050540;28;20154;-65
2021/04/27 07:46:31;;;;;;;10.70;5.90;;;9.00;62.90;;;;;;5050153;28;20029;-65
2021/04/27 07:48:57;;;;;;;17.58;5.80;;;9.30;61.60;;;;;;5046064;28;20364;-65
2021/04/27 07:51:23;;;;;;;10.32;5.35;;;9.70;60.20;;;;;;5029083;28;20021;-64
2021/04/27 07:53:48;;;;;;;8.98;5.13;;;9.40;58.00;;;;;;5049605;28;20029;-65
2021/04/27 07:56:14;;;;;;;9.50;5.13;;;9.30;57.60;;;;;;5050297;28;20043;-65
2021/04/27 07:58:39;;;;;;;10.50;5.80;;;9.30;58.90;;;;;;5047037;28;20021;-64
2021/04/27 08:01:05;;;;;;;10.95;5.75;;;9.90;57.40;;;;;;5050224;28;20384;-65
2021/04/27 08:03:31;;;;;;;8.32;5.32;;;9.90;57.60;;;;;;5049771;28;20053;-65
2021/04/27 08:05:56;;;;;;;7.20;4.90;;;9.80;55.90;;;;;;5048547;28;20045;-64
2021/04/27 08:08:22;;;;;;;9.90;5.43;;;10.00;55.50;;;;;;5049544;28;20032;-64
2021/04/27 08:10:48;;;;;;;10.05;5.45;;;9.90;55.50;;;;;;5048977;28;20025;-64
2021/04/27 08:13:14;;;;;;;8.48;5.57;;;10.00;55.70;;;;;;5049409;28;20025;-64
2021/04/27 08:15:41;;;;;;;9.75;5.30;;;10.10;55.50;;;;;;5048952;28;20405;-66
2021/04/27 08:18:06;;;;;;;7.60;5.00;;;10.30;55.80;;;;;;5046987;28;20028;-64
2021/04/27 08:20:32;;;;;;;270.40;116.13;;;10.70;54.10;;;;;;5049252;28;20021;-63
2021/04/27 08:22:59;;;;;;;30.73;16.55;;;11.00;53.20;;;;;;5047855;28;20017;-65
2021/04/27 08:25:25;;;;;;;9.63;5.82;;;11.20;53.60;;;;;;5047412;28;20025;-64
2021/04/27 08:27:51;;;;;;;12.52;5.70;;;11.40;49.00;;;;;;5047389;28;20590;-64
2021/04/27 08:30:18;;;;;;;7.13;4.70;;;12.20;49.40;;;;;;5049229;28;20036;-64
2021/04/27 08:32:44;;;;;;;9.02;5.55;;;12.60;48.00;;;;;;5045130;28;20009;-64
2021/04/27 08:35:11;;;;;;;6.60;4.72;;;13.00;46.50;;;;;;5049498;28;20021;-63
2021/04/27 08:37:37;;;;;;;12.48;6.80;;;12.70;45.40;;;;;;5046674;28;20467;-64
2021/04/27 08:40:04;;;;;;;7.55;5.45;;;12.50;46.90;;;;;;5049718;28;20044;-63
2021/04/27 08:42:30;;;;;;;7.63;5.20;;;13.40;46.80;;;;;;5047695;28;20025;-64
2021/04/27 08:44:56;;;;;;;13.00;5.03;;;13.40;48.20;;;;;;5046957;28;20024;-64
2021/04/27 08:47:24;;;;;;;10.77;4.80;;;13.50;44.80;;;;;;5045405;28;20049;-64
2021/04/27 08:49:50;;;;;;;10.38;5.40;;;13.80;44.60;;;;;;5048310;28;20032;-64
2021/04/27 08:52:16;;;;;;;6.90;4.93;;;14.30;43.60;;;;;;5048980;28;20100;-64
2021/04/27 08:54:41;;;;;;;7.22;4.55;;;14.10;43.80;;;;;;5048358;28;20025;-64
2021/04/27 08:57:07;;;;;;;6.90;5.40;;;14.00;44.90;;;;;;5049523;28;20128;-64
2021/04/27 08:59:33;;;;;;;6.28;5.47;;;13.60;45.30;;;;;;5048285;28;20017;-64
2021/04/27 09:02:01;;;;;;;7.82;5.55;;;13.80;45.30;;;;;;5048267;28;20021;-66
2021/04/27 09:04:39;;;;;;;8.75;5.05;;;14.00;44.40;;;;;;5048533;28;20483;-65
2021/04/27 09:07:06;;;;;;;7.70;4.65;;;13.10;45.40;;;;;;5044618;28;20557;-66
2021/04/27 09:09:46;;;;;;;9.10;4.47;;;13.40;45.80;;;;;;5046787;28;20395;-65
2021/04/27 09:12:12;;;;;;;11.70;5.15;;;13.00;45.20;;;;;;5048555;28;20032;-65
2021/04/27 09:14:41;;;;;;;10.65;5.20;;;12.60;45.20;;;;;;5047066;28;20033;-64
2021/04/27 09:17:09;;;;;;;14.13;5.00;;;12.60;44.80;;;;;;5046904;28;20033;-64
2021/04/27 09:19:44;;;;;;;10.63;5.05;;;12.70;46.60;;;;;;5046459;28;20124;-66
2021/04/27 09:22:24;;;;;;;7.85;4.63;;;12.60;46.50;;;;;;5048141;28;20024;-64
2021/04/27 09:24:52;;;;;;;10.02;5.57;;;12.50;46.30;;;;;;5044920;28;20063;-65
2021/04/27 09:27:48;;;;;;;8.90;5.30;;;12.90;45.10;;;;;;5047546;28;20022;-65
2021/04/27 09:30:26;;;;;;;6.95;5.20;;;13.90;42.40;;;;;;5047787;28;20036;-66
2021/04/27 09:32:55;;;;;;;8.90;4.93;;;14.30;41.40;;;;;;5047476;28;20017;-67
2021/04/27 09:35:42;;;;;;;9.80;4.90;;;14.00;42.20;;;;;;5029050;28;20030;-63
2021/04/27 09:38:19;;;;;;;9.82;4.93;;;14.30;42.70;;;;;;5047022;28;20021;-66
2021/04/27 09:40:55;;;;;;;9.68;4.82;;;14.70;40.90;;;;;;5048163;28;20523;-66
2021/04/27 09:43:25;;;;;;;9.52;5.28;;;14.00;41.60;;;;;;5048651;28;20018;-66
2021/04/27 09:45:52;;;;;;;12.80;5.30;;;14.40;41.30;;;;;;5046857;28;20446;-66
2021/04/27 09:48:30;;;;;;;5.80;4.15;;;13.90;41.20;;;;;;5046758;28;20086;-67
2021/04/27 09:51:02;;;;;;;8.20;4.82;;;14.30;39.50;;;;;;5045708;28;20025;-66
2021/04/27 09:53:46;;;;;;;7.82;4.70;;;14.20;39.60;;;;;;5044223;28;20464;-68
2021/04/27 09:56:11;;;;;;;9.13;4.07;;;14.40;39.40;;;;;;5046183;28;20028;-66
2021/04/27 09:58:37;;;;;;;11.98;4.80;;;14.00;36.60;;;;;;5047332;28;20029;-66
2021/04/27 10:01:05;;;;;;;7.28;4.85;;;13.70;36.70;;;;;;5048666;28;20467;-67
2021/04/27 10:03:30;;;;;;;8.43;5.13;;;13.90;38.00;;;;;;5048577;28;20440;-64
2021/04/27 10:05:56;;;;;;;5.55;4.35;;;13.70;38.40;;;;;;5047114;28;20227;-63
2021/04/27 10:08:22;;;;;;;9.35;4.95;;;14.00;38.10;;;;;;5047291;28;20534;-63
2021/04/27 10:10:48;;;;;;;9.13;4.70;;;13.50;36.80;;;;;;5030065;28;20047;-63
2021/04/27 10:13:14;;;;;;;8.48;4.45;;;13.50;37.20;;;;;;5046985;28;20092;-63
2021/04/27 10:15:40;;;;;;;7.40;4.50;;;13.40;37.60;;;;;;5046530;28;20032;-62
2021/04/27 10:18:08;;;;;;;13.82;4.53;;;13.30;36.90;;;;;;5044258;28;20024;-63
2021/04/27 10:20:33;;;;;;;195.48;84.70;;;13.20;37.60;;;;;;5046469;28;20426;-65
2021/04/27 10:22:59;;;;;;;12.60;5.78;;;13.40;37.40;;;;;;5054426;28;20017;-64
2021/04/27 10:25:26;;;;;;;6.25;4.38;;;13.50;36.00;;;;;;5029839;28;20100;-64
2021/04/27 10:27:59;;;;;;;6.95;4.85;;;13.50;36.80;;;;;;5046413;28;20100;-64
2021/04/27 10:30:24;;;;;;;9.32;3.97;;;13.50;37.40;;;;;;5047772;28;20121;-65
2021/04/27 10:33:13;;;;;;;6.80;4.65;;;13.50;35.30;;;;;;5047550;28;20029;-65
2021/04/27 10:35:41;;;;;;;7.72;4.50;;;13.20;36.70;;;;;;5029780;28;20029;-65
2021/04/27 10:38:16;;;;;;;10.13;4.20;;;13.40;36.80;;;;;;5048440;28;20021;-65
2021/04/27 10:41:12;;;;;;;8.10;4.75;;;13.50;37.10;;;;;;5029304;28;20021;-65
2021/04/27 10:43:39;;;;;;;9.23;4.93;;;13.50;38.60;;;;;;5046050;28;20021;-67
2021/04/27 10:46:07;;;;;;;8.07;4.18;;;13.50;38.30;;;;;;5047826;28;20020;-67
2021/04/27 10:48:41;;;;;;;8.40;4.40;;;13.60;38.10;;;;;;5047905;28;20017;-66
2021/04/27 10:51:23;;;;;;;7.00;4.50;;;13.40;37.90;;;;;;5050611;28;20025;-67
2021/04/27 10:54:30;;;;;;;8.07;4.95;;;13.50;37.90;;;;;;5050187;28;20025;-68
2021/04/27 10:57:05;;;;;;;8.43;4.55;;;13.30;37.50;;;;;;5011872;28;20041;-67
2021/04/27 10:59:47;;;;;;;7.03;5.05;;;13.10;38.30;;;;;;5029095;28;20435;-66
2021/04/27 11:02:16;;;;;;;8.85;4.55;;;13.30;39.10;;;;;;5037076;28;20048;-69
2021/04/27 11:04:49;;;;;;;11.65;4.63;;;13.30;38.80;;;;;;5048895;28;20036;-65
2021/04/27 11:07:23;;;;;;;9.02;5.07;;;13.50;37.40;;;;;;5051151;28;20041;-62
2021/04/27 11:09:58;;;;;;;45.10;23.63;;;13.60;37.80;;;;;;5050538;28;20032;-66
2021/04/27 11:12:51;;;;;;;13.90;6.82;;;13.60;36.60;;;;;;5047542;28;20032;-66
2021/04/27 11:15:24;;;;;;;7.22;4.70;;;13.40;37.80;;;;;;5050135;28;20024;-66
2021/04/27 11:18:20;;;;;;;13.30;5.43;;;13.30;37.40;;;;;;5027590;28;20160;-66
2021/04/27 11:20:52;;;;;;;6.25;4.15;;;13.40;37.20;;;;;;5026680;28;20194;-66
2021/04/27 11:23:40;;;;;;;7.55;5.00;;;13.20;36.90;;;;;;5030299;28;20029;-65
2021/04/27 11:26:28;;;;;;;7.00;4.32;;;13.30;36.70;;;;;;5050100;28;20028;-65
2021/04/27 11:28:55;;;;;;;10.63;4.97;;;13.50;36.00;;;;;;5050778;28;20104;-64
2021/04/27 11:31:20;;;;;;;8.48;4.07;;;13.50;34.90;;;;;;5050387;28;20472;-66
2021/04/27 11:33:59;;;;;;;5.13;3.75;;;13.50;34.30;;;;;;5050234;28;20017;-65
2021/04/27 11:36:37;;;;;;;10.68;4.75;;;13.60;34.60;;;;;;5050477;28;20033;-67
2021/04/27 11:39:16;;;;;;;5.25;4.15;;;13.60;35.90;;;;;;5050880;28;20028;-67
2021/04/27 11:41:46;;;;;;;10.30;4.20;;;13.60;35.60;;;;;;5049608;28;20503;-66
2021/04/27 11:44:12;;;;;;;32.10;17.08;;;14.00;37.10;;;;;;5050659;28;20032;-67
2021/04/27 11:46:53;;;;;;;9.02;5.18;;;14.00;36.30;;;;;;5045249;28;20104;-65
2021/04/27 11:49:20;;;;;;;10.10;4.65;;;13.90;36.30;;;;;;5046352;28;20028;-65
2021/04/27 11:51:47;;;;;;;5.88;4.38;;;13.70;37.10;;;;;;5050021;28;20032;-66
2021/04/27 11:54:13;;;;;;;14.20;4.88;;;13.60;36.40;;;;;;5050683;28;20036;-64
2021/04/27 11:56:51;;;;;;;6.55;4.65;;;13.80;36.30;;;;;;5049134;28;20033;-65
2021/04/27 11:59:20;;;;;;;9.82;4.80;;;13.50;35.70;;;;;;5048496;28;20024;-66
2021/04/27 12:01:46;;;;;;;7.10;5.10;;;13.50;37.10;;;;;;5048645;28;20388;-63
2021/04/27 12:04:11;;;;;;;8.18;4.80;;;13.50;36.40;;;;;;5048777;28;20482;-63
2021/04/27 12:06:37;;;;;;;8.00;5.10;;;13.60;36.90;;;;;;5031458;28;20056;-63
2021/04/27 12:09:03;;;;;;;7.63;5.07;;;13.70;36.30;;;;;;5049344;28;20028;-68
2021/04/27 12:11:32;;;;;;;10.10;4.22;;;13.60;36.70;;;;;;5030588;28;20020;-62
2021/04/27 12:14:09;;;;;;;8.27;4.68;;;13.70;37.50;;;;;;5047885;28;20032;-62
2021/04/27 12:16:37;;;;;;;8.30;5.18;;;13.70;36.80;;;;;;5047382;28;20025;-63
2021/04/27 12:19:06;;;;;;;11.85;4.70;;;13.70;36.80;;;;;;5047143;28;20577;-63
2021/04/27 12:21:41;;;;;;;12.40;5.03;;;13.90;36.60;;;;;;5050110;28;20029;-62
2021/04/27 12:24:29;;;;;;;13.23;5.18;;;13.90;36.60;;;;;;5031573;28;20035;-65
2021/04/27 12:26:59;;;;;;;7.03;4.53;;;13.80;36.50;;;;;;5048780;28;20036;-65
2021/04/27 12:29:48;;;;;;;7.47;4.90;;;13.90;35.60;;;;;;5048647;28;20029;-64
2021/04/27 12:32:15;;;;;;;9.52;4.60;;;14.10;35.70;;;;;;5049444;28;20479;-65
2021/04/27 12:34:58;;;;;;;10.55;7.13;;;14.10;36.00;;;;;;5047621;28;20092;-64
2021/04/27 12:37:25;;;;;;;7.18;5.50;;;14.00;35.90;;;;;;5049802;28;20055;-64
2021/04/27 12:39:51;;;;;;;5.97;4.45;;;14.00;36.30;;;;;;5047909;28;20033;-64
2021/04/27 12:42:26;;;;;;;9.73;4.38;;;14.00;35.80;;;;;;5045184;28;20028;-66
2021/04/27 12:45:04;;;;;;;7.65;4.80;;;14.00;35.60;;;;;;5046242;28;20401;-65
2021/04/27 12:47:32;;;;;;;6.88;4.90;;;14.10;34.00;;;;;;5042648;28;20020;-64
2021/04/27 12:50:15;;;;;;;9.82;4.85;;;14.20;34.90;;;;;;5047414;28;20025;-65
2021/04/27 12:53:07;;;;;;;7.25;5.03;;;14.20;34.50;;;;;;5047226;28;20055;-65
2021/04/27 12:55:35;;;;;;;8.23;4.80;;;14.00;35.20;;;;;;5045269;28;20033;-65